Time;durP1;ratioP1;P1;durP2;ratioP2;P2;SDS_P1;SDS_P2;PMS_P1;PMS_P2;Temp;Humidity;BMP_temperature;BMP_pressure;BME280_temperature;BME280_humidity;BME280_pressure;Samples;Min_cycle;Max_cycle;Signal;HPM_P1;HPM_P2
2023/04/10 00:00:30;;;;;;;86.32;50.08;;;;;;;9.08;89.59;102023.31;4932152;29;20149;-75
2023/04/10 00:02:58;;;;;;;87.18;51.55;;;;;;;9.06;85.66;102020.06;4926449;29;20044;-76
2023/04/10 00:05:23;;;;;;;89.90;49.95;;;;;;;9.05;84.40;102015.66;4915831;29;20035;-76
2023/04/10 00:07:48;;;;;;;85.82;51.58;;;;;;;9.09;86.05;102013.81;4923712;29;20083;-76
2023/04/10 00:10:14;;;;;;;80.90;48.63;;;;;;;9.30;90.48;102018.59;4914278;29;20032;-75
2023/04/10 00:12:39;;;;;;;82.40;51.15;;;;;;;9.19;84.46;102011.75;4921448;29;20042;-76
2023/04/10 00:15:05;;;;;;;83.72;49.35;;;;;;;9.22;90.04;102011.09;4919827;29;20054;-76
2023/04/10 00:17:30;;;;;;;86.38;49.58;;;;;;;9.39;88.86;102008.13;4918732;29;20030;-75
2023/04/10 00:19:58;;;;;;;77.40;47.70;;;;;;;9.33;88.02;102006.72;4923490;29;20554;-75
2023/04/10 00:22:23;;;;;;;82.60;47.47;;;;;;;9.35;88.55;102001.59;4920922;29;20478;-75
2023/04/10 00:24:48;;;;;;;72.80;46.78;;;;;;;9.21;87.20;102009.44;4906387;29;20024;-76
2023/04/10 00:27:14;;;;;;;83.72;45.22;;;;;;;9.08;86.05;102000.97;4930661;29;20059;-76
2023/04/10 00:29:39;;;;;;;78.35;47.85;;;;;;;9.29;88.28;102000.16;4922053;29;20027;-76
2023/04/10 00:32:04;;;;;;;74.00;45.10;;;;;;;9.19;89.83;101997.78;4924706;29;20040;-76
2023/04/10 00:34:30;;;;;;;77.28;45.20;;;;;;;9.31;88.69;101993.06;4922259;29;20115;-76
2023/04/10 00:36:55;;;;;;;75.05;46.15;;;;;;;9.35;88.74;101979.25;4908646;29;20035;-75
2023/04/10 00:39:21;;;;;;;77.70;45.53;;;;;;;9.08;84.50;101973.06;4911271;29;20040;-75
2023/04/10 00:41:46;;;;;;;77.13;46.58;;;;;;;9.13;89.03;101953.31;4922552;29;20039;-75
2023/04/10 00:44:11;;;;;;;76.18;45.78;;;;;;;8.98;84.70;101950.31;4924725;29;20031;-75
2023/04/10 00:46:39;;;;;;;76.88;46.15;;;;;;;8.95;87.16;101946.22;4921926;29;20383;-75
2023/04/10 00:49:05;;;;;;;78.93;46.30;;;;;;;8.85;88.68;101946.63;4924523;29;20031;-77
2023/04/10 00:51:30;;;;;;;72.47;44.05;;;;;;;8.86;89.10;101951.06;4920379;29;20495;-75
2023/04/10 00:53:55;;;;;;;82.38;47.75;;;;;;;8.95;90.19;101946.22;4921221;29;20071;-77
2023/04/10 00:56:23;;;;;;;72.03;42.80;;;;;;;8.83;87.54;101935.00;4916651;29;20111;-77
2023/04/10 00:58:48;;;;;;;75.20;46.22;;;;;;;8.87;89.02;101928.38;4919214;29;20031;-76
2023/04/10 01:01:14;;;;;;;78.90;46.08;;;;;;;8.73;85.86;101928.66;4912399;29;20534;-76
2023/04/10 01:03:41;;;;;;;70.22;42.38;;;;;;;8.79;89.85;101929.28;4919498;29;20035;-76
2023/04/10 01:06:30;;;;;;;71.05;42.72;;;;;;;8.82;88.30;101927.78;4901930;29;20078;-77
2023/04/10 01:09:24;;;;;;;70.60;42.10;;;;;;;8.43;87.66;101915.88;4873419;29;20074;-76
2023/04/10 01:12:15;;;;;;;70.70;41.83;;;;;;;8.40;87.43;101919.34;4917409;29;20481;-76
2023/04/10 01:14:57;;;;;;;64.03;40.40;;;;;;;8.55;87.12;101915.97;4915296;29;20677;-76
2023/04/10 01:17:40;;;;;;;69.57;41.23;;;;;;;8.50;86.42;101913.41;4914409;29;20042;-76
2023/04/10 01:20:11;;;;;;;68.43;43.55;;;;;;;8.59;86.67;101918.91;4909636;29;20102;-76
2023/04/10 01:23:27;;;;;;;69.22;41.95;;;;;;;8.35;89.98;101912.00;4910848;29;20068;-76
2023/04/10 01:25:58;;;;;;;69.95;42.95;;;;;;;8.63;88.94;101915.09;4885206;29;20075;-76
2023/04/10 01:28:45;;;;;;;68.00;40.33;;;;;;;8.57;87.91;101913.66;4911445;29;20035;-76
2023/04/10 01:31:14;;;;;;;72.22;39.55;;;;;;;8.80;90.40;101913.34;4913744;29;20466;-76
2023/04/10 01:33:46;;;;;;;67.75;40.28;;;;;;;8.60;87.06;101923.31;4917459;29;20110;-76
2023/04/10 01:36:20;;;;;;;68.15;39.92;;;;;;;8.63;88.61;101917.91;4916513;29;20039;-76
2023/04/10 01:38:48;;;;;;;64.43;38.25;;;;;;;8.53;85.74;101913.53;4914939;29;20043;-76
2023/04/10 01:41:14;;;;;;;68.05;39.65;;;;;;;8.57;88.63;101913.66;4916694;29;20371;-76
2023/04/10 01:43:41;;;;;;;65.75;39.28;;;;;;;8.45;86.65;101911.59;4914822;29;20039;-76
2023/04/10 01:46:07;;;;;;;62.40;36.70;;;;;;;8.54;90.05;101908.78;4915490;29;20091;-76
2023/04/10 01:48:32;;;;;;;62.55;37.03;;;;;;;8.32;89.88;101902.28;4898791;29;20031;-76
2023/04/10 01:51:02;;;;;;;61.88;38.65;;;;;;;8.04;87.82;101898.38;4908718;29;20457;-76
2023/04/10 01:53:29;;;;;;;64.82;38.53;;;;;;;8.09;87.08;101909.31;4924186;29;20112;-76
2023/04/10 01:55:55;;;;;;;58.33;36.90;;;;;;;8.14;88.72;101909.16;4911477;29;20035;-76
2023/04/10 01:58:20;;;;;;;64.18;36.60;;;;;;;8.25;89.71;101907.59;4908390;29;20038;-76
2023/04/10 02:00:45;;;;;;;63.53;38.95;;;;;;;8.03;89.68;101902.28;4929228;29;20062;-76
2023/04/10 02:03:11;;;;;;;65.47;38.10;;;;;;;8.11;89.47;101898.66;4924760;29;21613;-76
2023/04/10 02:05:50;;;;;;;62.92;37.90;;;;;;;8.00;87.34;101897.41;4920240;29;20035;-76
2023/04/10 02:08:32;;;;;;;61.10;36.40;;;;;;;7.94;89.00;101893.97;4925729;29;20449;-75
2023/04/10 02:11:17;;;;;;;64.30;39.05;;;;;;;8.03;91.25;101885.56;4931009;29;20048;-76
2023/04/10 02:13:42;;;;;;;73.22;39.83;;;;;;;7.94;88.54;101882.81;4933161;29;20027;-76
2023/04/10 02:16:09;;;;;;;67.55;38.22;;;;;;;8.26;94.07;101880.53;4934655;29;20043;-75
2023/04/10 02:18:37;;;;;;;62.20;36.92;;;;;;;7.99;89.24;101882.66;4927902;29;20043;-76
2023/04/10 02:21:03;;;;;;;62.25;36.80;;;;;;;8.09;90.04;101870.28;4907911;29;20050;-76
2023/04/10 02:23:28;;;;;;;59.42;37.22;;;;;;;8.12;89.71;101875.22;4922230;29;20023;-75
2023/04/10 02:25:55;;;;;;;58.00;36.55;;;;;;;8.01;88.35;101879.50;4907475;29;20031;-76
2023/04/10 02:28:21;;;;;;;63.38;36.28;;;;;;;8.14;87.90;101867.31;4911521;29;20038;-76
2023/04/10 02:30:46;;;;;;;63.95;39.15;;;;;;;8.10;90.47;101869.16;4932450;29;20486;-76
2023/04/10 02:33:12;;;;;;;56.10;34.25;;;;;;;8.08;91.12;101869.47;4909161;29;20043;-76
2023/04/10 02:35:37;;;;;;;68.05;34.83;;;;;;;7.74;89.69;101862.13;4926291;29;20027;-76
2023/04/10 02:38:02;;;;;;;65.80;35.97;;;;;;;7.92;91.32;101862.84;4926736;29;20489;-75
2023/04/10 02:40:31;;;;;;;55.78;36.65;;;;;;;7.92;91.18;101863.63;4904793;29;20047;-75
2023/04/10 02:42:57;;;;;;;63.33;37.20;;;;;;;7.87;90.64;101863.03;4912786;29;20057;-76
2023/04/10 02:45:22;;;;;;;60.45;35.63;;;;;;;7.92;88.68;101860.03;4898593;29;20078;-76
2023/04/10 02:47:47;;;;;;;64.13;36.72;;;;;;;7.93;90.65;101856.13;4905877;29;20050;-76
2023/04/10 02:50:13;;;;;;;60.13;35.67;;;;;;;7.98;90.28;101858.69;4886928;29;20031;-76
2023/04/10 02:52:38;;;;;;;61.53;34.33;;;;;;;7.94;90.13;101866.09;4902889;29;20561;-77
2023/04/10 02:55:04;;;;;;;60.88;34.10;;;;;;;7.79;90.46;101850.75;4924332;29;20031;-76
2023/04/10 02:57:29;;;;;;;55.30;32.97;;;;;;;7.88;90.98;101859.06;4920638;29;20398;-75
2023/04/10 02:59:55;;;;;;;53.42;31.88;;;;;;;7.76;90.58;101856.19;4923971;29;20032;-75
2023/04/10 03:02:20;;;;;;;64.07;34.63;;;;;;;7.68;90.42;101855.09;4917801;29;20078;-76
2023/04/10 03:04:46;;;;;;;57.25;33.13;;;;;;;7.78;90.38;101851.94;4923942;29;20067;-76
2023/04/10 03:07:11;;;;;;;51.40;30.30;;;;;;;7.65;91.70;101848.22;4925165;29;20064;-76
2023/04/10 03:09:36;;;;;;;56.88;32.03;;;;;;;7.79;91.20;101859.13;4923484;29;20434;-75
2023/04/10 03:12:02;;;;;;;55.83;31.38;;;;;;;7.77;91.37;101853.06;4923745;29;20031;-76
2023/04/10 03:14:27;;;;;;;50.15;29.52;;;;;;;7.77;90.35;101850.28;4904603;29;20063;-76
2023/04/10 03:16:53;;;;;;;47.95;30.38;;;;;;;7.96;90.47;101849.03;4916669;29;20036;-76
2023/04/10 03:19:18;;;;;;;49.92;28.52;;;;;;;7.65;90.03;101850.16;4907090;29;20048;-76
2023/04/10 03:21:45;;;;;;;47.65;28.30;;;;;;;7.67;90.46;101856.22;4922990;29;20059;-75
2023/04/10 03:24:10;;;;;;;53.40;28.40;;;;;;;7.72;92.90;101853.25;4921457;29;20036;-75
2023/04/10 03:26:36;;;;;;;50.88;27.58;;;;;;;7.72;91.69;101861.63;4919523;29;20406;-75
2023/04/10 03:29:01;;;;;;;51.00;28.48;;;;;;;7.67;90.94;101856.22;4923100;29;20187;-75
2023/04/10 03:31:26;;;;;;;42.15;26.15;;;;;;;7.74;93.78;101850.97;4923437;29;20606;-75
2023/04/10 03:33:52;;;;;;;44.75;24.90;;;;;;;7.73;90.66;101854.88;4918561;29;20042;-75
2023/04/10 03:36:17;;;;;;;41.83;24.85;;;;;;;7.82;92.96;101855.69;4907149;29;20509;-75
2023/04/10 03:38:43;;;;;;;47.35;26.98;;;;;;;7.68;90.65;101852.31;4924562;29;20597;-75
2023/04/10 03:41:08;;;;;;;44.97;26.23;;;;;;;7.71;91.10;101849.63;4911175;29;20394;-75
2023/04/10 03:43:33;;;;;;;45.33;23.92;;;;;;;7.86;92.23;101845.50;4929825;29;20044;-75
2023/04/10 03:46:00;;;;;;;43.88;25.52;;;;;;;7.72;90.38;101856.06;4917552;29;20134;-75
2023/04/10 03:48:27;;;;;;;39.63;24.00;;;;;;;7.76;92.33;101858.97;4918205;29;20110;-74
2023/04/10 03:50:53;;;;;;;44.95;25.27;;;;;;;7.76;92.44;101851.44;4906188;29;20053;-75
2023/04/10 03:53:19;;;;;;;36.75;23.27;;;;;;;7.68;90.96;101846.72;4910956;29;20028;-75
2023/04/10 03:55:44;;;;;;;40.72;23.52;;;;;;;7.72;90.57;101844.91;4917612;29;20031;-76
2023/04/10 03:58:11;;;;;;;42.53;24.92;;;;;;;7.74;91.22;101837.03;4913439;29;20032;-75
2023/04/10 04:00:36;;;;;;;41.90;23.75;;;;;;;7.50;91.90;101837.59;4907637;29;20039;-75
2023/04/10 04:03:03;;;;;;;36.67;22.08;;;;;;;7.67;92.70;101831.13;4907428;29;20123;-75
2023/04/10 04:05:30;;;;;;;35.00;21.30;;;;;;;7.56;91.42;101832.69;4903026;29;20032;-75
2023/04/10 04:07:55;;;;;;;37.03;21.83;;;;;;;7.60;93.35;101826.09;4908298;29;20461;-75
2023/04/10 04:10:20;;;;;;;42.63;23.45;;;;;;;7.77;93.44;101825.19;4908618;29;20035;-75
2023/04/10 04:12:46;;;;;;;39.38;22.48;;;;;;;7.59;93.19;101824.47;4907046;29;20412;-74
2023/04/10 04:15:11;;;;;;;43.60;23.15;;;;;;;7.60;91.40;101828.06;4899064;29;20035;-74
2023/04/10 04:17:36;;;;;;;38.08;22.73;;;;;;;7.42;91.95;101818.94;4897023;29;20032;-75
2023/04/10 04:20:03;;;;;;;37.70;21.38;;;;;;;7.56;92.81;101818.75;4915900;29;20032;-75
2023/04/10 04:22:28;;;;;;;36.72;21.30;;;;;;;7.64;93.71;101815.09;4898706;29;20027;-75
2023/04/10 04:24:53;;;;;;;35.90;21.33;;;;;;;7.58;93.07;101819.22;4916369;29;20032;-75
2023/04/10 04:27:20;;;;;;;39.65;21.83;;;;;;;7.69;92.77;101817.69;4906404;29;20090;-75
2023/04/10 04:29:46;;;;;;;33.30;20.83;;;;;;;7.68;92.78;101807.72;4902573;29;20067;-75
2023/04/10 04:32:11;;;;;;;35.83;19.38;;;;;;;7.73;92.67;101807.50;4920124;29;20550;-75
2023/04/10 04:34:36;;;;;;;34.55;20.55;;;;;;;7.71;90.69;101809.81;4902991;29;20186;-75
2023/04/10 04:37:02;;;;;;;36.80;22.88;;;;;;;7.68;92.75;101811.31;4914207;29;20102;-75
2023/04/10 04:39:27;;;;;;;34.80;21.48;;;;;;;7.64;92.66;101801.19;4897302;29;20039;-75
2023/04/10 04:41:52;;;;;;;35.38;20.75;;;;;;;7.46;91.57;101809.63;4904906;29;20095;-75
2023/04/10 04:44:18;;;;;;;40.10;21.90;;;;;;;7.58;91.60;101794.16;4900325;29;20959;-75
2023/04/10 04:46:44;;;;;;;36.88;21.13;;;;;;;7.58;93.44;101799.72;4900704;29;20036;-75
2023/04/10 04:49:09;;;;;;;37.75;20.88;;;;;;;7.54;91.87;101805.16;4895346;29;21877;-75
2023/04/10 04:51:35;;;;;;;37.45;21.90;;;;;;;7.57;93.49;101812.00;4895249;29;20090;-75
2023/04/10 04:54:01;;;;;;;35.40;20.05;;;;;;;7.70;92.96;101802.63;4901520;29;20058;-75
2023/04/10 04:56:26;;;;;;;36.20;21.70;;;;;;;7.59;91.57;101804.13;4903863;29;20709;-75
2023/04/10 04:58:51;;;;;;;37.80;22.20;;;;;;;7.47;91.63;101805.66;4900266;29;20521;-76
2023/04/10 05:01:17;;;;;;;39.30;22.00;;;;;;;7.64;92.52;101803.97;4917936;29;20652;-74
2023/04/10 05:03:42;;;;;;;35.03;20.77;;;;;;;7.59;91.96;101790.19;4911517;29;20487;-75
2023/04/10 05:06:07;;;;;;;39.67;21.77;;;;;;;7.44;91.38;101795.19;4911067;29;20039;-75
2023/04/10 05:08:33;;;;;;;41.08;23.30;;;;;;;7.57;93.15;101803.66;4888971;29;20059;-75
2023/04/10 05:10:58;;;;;;;40.78;22.63;;;;;;;7.58;92.97;101788.59;4907046;29;20046;-75
2023/04/10 05:13:23;;;;;;;36.67;21.50;;;;;;;7.40;93.61;101788.66;4908490;29;20278;-75
2023/04/10 05:15:49;;;;;;;36.42;22.70;;;;;;;7.57;90.82;101786.94;4897989;29;20040;-75
2023/04/10 05:18:18;;;;;;;37.70;21.13;;;;;;;7.58;91.41;101788.59;4896326;29;20039;-75
2023/04/10 05:20:45;;;;;;;37.10;21.00;;;;;;;7.50;91.32;101777.13;4894758;29;20127;-75
2023/04/10 05:23:10;;;;;;;38.33;21.25;;;;;;;7.38;92.50;101779.81;4919763;29;20050;-75
2023/04/10 05:25:36;;;;;;;38.30;21.33;;;;;;;7.37;93.16;101777.38;4918723;29;20036;-75
2023/04/10 05:28:01;;;;;;;37.83;20.13;;;;;;;7.62;94.76;101775.63;4917566;29;20032;-75
2023/04/10 05:30:26;;;;;;;33.97;17.85;;;;;;;7.46;90.99;101776.19;4920636;29;20054;-75
2023/04/10 05:32:52;;;;;;;33.83;19.90;;;;;;;7.51;91.44;101787.13;4919609;29;20071;-76
2023/04/10 05:35:17;;;;;;;35.42;19.90;;;;;;;7.66;92.60;101790.50;4904727;29;20024;-75
2023/04/10 05:37:42;;;;;;;34.92;19.50;;;;;;;7.60;91.71;101786.28;4902274;29;20125;-75
2023/04/10 05:40:08;;;;;;;32.67;20.30;;;;;;;7.58;92.60;101788.59;4925090;29;20119;-75
2023/04/10 05:42:34;;;;;;;38.10;21.52;;;;;;;7.73;91.14;101797.16;4916540;29;20048;-75
2023/04/10 05:44:59;;;;;;;38.97;20.25;;;;;;;7.65;91.78;101789.69;4896820;29;20513;-75
2023/04/10 05:47:24;;;;;;;30.90;17.70;;;;;;;7.82;90.27;101790.72;4907921;29;20027;-75
2023/04/10 05:49:50;;;;;;;33.42;19.23;;;;;;;7.81;91.49;101786.31;4917294;29;20032;-75
2023/04/10 05:52:15;;;;;;;34.78;18.77;;;;;;;7.67;90.04;101780.97;4903422;29;21220;-75
2023/04/10 05:54:40;;;;;;;37.80;19.30;;;;;;;7.77;90.78;101780.59;4926534;29;20027;-75
2023/04/10 05:57:06;;;;;;;34.67;19.02;;;;;;;7.78;91.24;101782.25;4896796;29;20059;-75
2023/04/10 05:59:31;;;;;;;34.83;20.63;;;;;;;7.68;90.68;101782.63;4919178;29;20062;-75
2023/04/10 06:01:56;;;;;;;35.05;19.08;;;;;;;7.63;90.48;101780.03;4916645;29;20027;-75
2023/04/10 06:04:22;;;;;;;35.33;18.38;;;;;;;7.71;90.68;101777.19;4915528;29;20107;-75
2023/04/10 06:06:48;;;;;;;37.20;18.67;;;;;;;7.58;91.09;101771.88;4929939;29;20047;-74
2023/04/10 06:09:13;;;;;;;32.85;19.52;;;;;;;7.73;91.03;101774.06;4930433;29;20122;-74
2023/04/10 06:11:38;;;;;;;32.25;18.60;;;;;;;7.69;90.70;101778.69;4925624;29;20055;-75
2023/04/10 06:14:04;;;;;;;40.20;21.63;;;;;;;7.59;90.84;101767.91;4922706;29;20126;-76
2023/04/10 06:16:29;;;;;;;35.83;18.15;;;;;;;7.76;91.84;101773.41;4916714;29;20047;-75
2023/04/10 06:18:55;;;;;;;32.45;18.58;;;;;;;7.67;91.53;101772.63;4929369;29;20091;-75
2023/04/10 06:21:20;;;;;;;41.72;20.38;;;;;;;7.79;91.12;101764.34;4922949;29;20055;-75
2023/04/10 06:23:46;;;;;;;31.73;19.50;;;;;;;7.78;91.06;101765.53;4930186;29;20120;-75
2023/04/10 06:26:11;;;;;;;37.53;19.98;;;;;;;7.77;91.36;101765.84;4920841;29;20037;-75
2023/04/10 06:28:36;;;;;;;34.60;18.50;;;;;;;7.96;92.47;101751.47;4925903;29;20031;-75
2023/04/10 06:31:03;;;;;;;36.33;17.80;;;;;;;7.85;90.54;101743.50;4926389;29;20024;-75
2023/04/10 06:33:28;;;;;;;31.15;19.38;;;;;;;7.89;91.04;101741.66;4921169;29;20030;-75
2023/04/10 06:35:54;;;;;;;35.28;18.60;;;;;;;7.92;91.33;101740.97;4892155;29;20394;-75
2023/04/10 06:38:20;;;;;;;35.83;19.50;;;;;;;7.97;90.91;101739.16;4915670;29;20583;-75
2023/04/10 06:40:45;;;;;;;37.75;18.88;;;;;;;8.09;91.79;101731.66;4919773;29;20051;-76
2023/04/10 06:43:10;;;;;;;32.45;20.38;;;;;;;8.18;90.26;101733.56;4919946;29;20028;-75
2023/04/10 06:45:36;;;;;;;33.10;19.02;;;;;;;8.23;91.17;101730.59;4916615;29;20118;-75
2023/04/10 06:48:01;;;;;;;38.90;19.83;;;;;;;8.19;90.00;101730.47;4922846;29;20127;-75
2023/04/10 06:50:26;;;;;;;36.63;18.77;;;;;;;8.29;89.41;101735.63;4920256;29;20039;-75
2023/04/10 06:52:54;;;;;;;34.13;19.40;;;;;;;8.32;88.86;101729.34;4914184;29;20040;-74
2023/04/10 06:55:20;;;;;;;34.35;18.58;;;;;;;8.33;89.75;101724.59;4920181;29;20581;-75
2023/04/10 06:57:45;;;;;;;33.88;18.95;;;;;;;8.39;89.43;101719.63;4925261;29;20126;-75
2023/04/10 07:00:11;;;;;;;35.72;19.23;;;;;;;8.41;89.48;101720.97;4922854;29;20043;-74
2023/04/10 07:02:36;;;;;;;34.50;18.92;;;;;;;8.47;89.33;101718.75;4929628;29;20034;-75
2023/04/10 07:05:02;;;;;;;36.30;19.13;;;;;;;8.60;88.63;101717.66;4927421;29;20031;-74
2023/04/10 07:07:28;;;;;;;36.67;19.85;;;;;;;8.70;89.21;101708.81;4922971;29;20031;-74
2023/04/10 07:09:53;;;;;;;38.10;19.17;;;;;;;8.79;88.26;101699.53;4916954;29;20056;-77
2023/04/10 07:12:18;;;;;;;29.92;16.80;;;;;;;8.85;88.20;101689.78;4925521;29;20063;-76
2023/04/10 07:14:44;;;;;;;27.90;16.58;;;;;;;9.02;87.61;101692.34;4925708;29;20028;-75
2023/04/10 07:17:09;;;;;;;30.15;16.90;;;;;;;9.11;86.11;101686.69;4910786;29;20031;-75
2023/04/10 07:19:36;;;;;;;29.83;16.65;;;;;;;9.13;85.47;101674.00;4927693;29;20032;-76
2023/04/10 07:22:02;;;;;;;29.08;18.80;;;;;;;9.24;84.97;101673.53;4916979;29;20538;-76
2023/04/10 07:24:27;;;;;;;32.08;17.73;;;;;;;9.34;85.69;101661.91;4902487;29;20039;-75
2023/04/10 07:26:52;;;;;;;28.55;15.98;;;;;;;9.46;83.46;101659.06;4919268;29;20082;-75
2023/04/10 07:29:19;;;;;;;27.40;16.50;;;;;;;9.62;83.49;101652.78;4921854;29;20024;-75
2023/04/10 07:31:44;;;;;;;25.95;15.90;;;;;;;10.00;86.42;101648.72;4921996;29;20031;-75
2023/04/10 07:34:10;;;;;;;29.67;16.50;;;;;;;9.94;80.34;101640.56;4922073;29;20027;-75
2023/04/10 07:36:36;;;;;;;28.42;16.70;;;;;;;9.97;80.56;101633.44;4914495;29;20024;-75
2023/04/10 07:39:01;;;;;;;24.80;15.57;;;;;;;9.99;81.11;101633.88;4925919;29;20656;-76
2023/04/10 07:41:27;;;;;;;25.73;13.73;;;;;;;10.17;82.10;101626.81;4926380;29;20487;-75
2023/04/10 07:43:52;;;;;;;29.25;16.00;;;;;;;10.05;80.03;101626.06;4925292;29;20051;-76
2023/04/10 07:46:18;;;;;;;28.88;15.75;;;;;;;10.56;76.71;101612.28;4901417;29;20032;-75
2023/04/10 07:48:43;;;;;;;25.92;14.50;;;;;;;10.28;78.03;101610.31;4923679;29;20039;-75
2023/04/10 07:51:09;;;;;;;23.50;13.77;;;;;;;10.34;79.60;101616.50;4920896;29;20036;-76
2023/04/10 07:53:35;;;;;;;26.65;15.52;;;;;;;10.46;80.84;101615.66;4922030;29;20028;-85
2023/04/10 07:56:01;;;;;;;21.67;15.10;;;;;;;10.46;77.63;101612.84;4923970;29;20042;-78
2023/04/10 07:58:27;;;;;;;22.65;13.85;;;;;;;10.35;77.83;101609.72;4921649;29;20035;-78
2023/04/10 08:00:52;;;;;;;25.02;14.52;;;;;;;10.37;78.17;101597.03;4908648;29;20458;-78
2023/04/10 08:03:17;;;;;;;22.33;13.98;;;;;;;10.51;78.00;101598.56;4909809;29;20135;-78
2023/04/10 08:05:43;;;;;;;25.63;14.13;;;;;;;10.58;76.60;101607.16;4920794;29;20371;-78
2023/04/10 08:08:08;;;;;;;20.20;13.88;;;;;;;10.52;76.61;101609.41;4916321;29;20494;-79
2023/04/10 08:10:38;;;;;;;25.20;14.02;;;;;;;10.59;76.15;101597.59;4920999;29;20064;-78
2023/04/10 08:13:04;;;;;;;22.25;12.25;;;;;;;10.49;76.17;101603.72;4924404;29;20175;-79
2023/04/10 08:15:29;;;;;;;25.40;15.55;;;;;;;10.70;76.04;101604.25;4929946;29;20081;-79
2023/04/10 08:17:55;;;;;;;22.30;13.07;;;;;;;10.86;74.96;101597.88;4922592;29;20031;-78
2023/04/10 08:20:20;;;;;;;20.05;13.27;;;;;;;10.94;74.36;101599.63;4933129;29;20039;-78
2023/04/10 08:22:45;;;;;;;22.77;13.75;;;;;;;11.06;74.76;101593.94;4925395;29;20110;-78
2023/04/10 08:25:11;;;;;;;22.73;12.80;;;;;;;11.08;74.58;101591.59;4912613;29;20035;-78
2023/04/10 08:27:36;;;;;;;21.48;14.30;;;;;;;11.10;74.26;101583.63;4900333;29;20118;-80
2023/04/10 08:30:02;;;;;;;19.52;12.32;;;;;;;11.35;73.84;101577.78;4924034;29;20036;-79
2023/04/10 08:32:28;;;;;;;20.20;12.55;;;;;;;11.74;71.73;101577.81;4921429;29;20036;-79
2023/04/10 08:34:53;;;;;;;19.98;12.48;;;;;;;11.78;71.70;101576.72;4919016;29;20032;-79
2023/04/10 08:37:20;;;;;;;23.13;12.48;;;;;;;11.64;71.73;101579.22;4928543;29;20035;-80
2023/04/10 08:39:45;;;;;;;17.42;11.98;;;;;;;11.93;73.81;101588.25;4921226;29;20035;-79
2023/04/10 08:42:10;;;;;;;19.85;11.75;;;;;;;11.66;71.37;101567.63;4929483;29;20031;-80
2023/04/10 08:44:36;;;;;;;18.83;11.55;;;;;;;11.67;72.35;101578.47;4931601;29;20122;-80
2023/04/10 08:47:03;;;;;;;21.25;12.32;;;;;;;11.95;71.54;101572.69;4908722;29;20246;-79
2023/04/10 08:49:54;;;;;;;20.58;11.77;;;;;;;12.03;70.59;101572.81;4921559;29;20535;-79
2023/04/10 08:52:24;;;;;;;19.75;10.95;;;;;;;12.21;70.97;101568.38;4915369;29;20464;-79
2023/04/10 08:54:56;;;;;;;19.35;11.25;;;;;;;12.29;70.15;101563.69;4927760;29;20034;-79
2023/04/10 08:57:22;;;;;;;20.52;12.13;;;;;;;12.21;69.59;101554.34;4927537;29;20033;-79
2023/04/10 08:59:50;;;;;;;19.83;12.45;;;;;;;12.33;70.21;101554.16;4926222;29;20032;-78
2023/04/10 09:02:16;;;;;;;19.75;10.57;;;;;;;12.20;70.01;101539.47;4916825;29;20035;-80
2023/04/10 09:04:48;;;;;;;18.38;10.45;;;;;;;12.20;67.57;101528.25;4915301;29;20086;-78
2023/04/10 09:07:14;;;;;;;18.55;11.18;;;;;;;12.57;67.28;101546.53;4925027;29;20732;-79
2023/04/10 09:09:43;;;;;;;16.95;10.27;;;;;;;12.49;67.67;101545.59;4905206;29;20035;-79
2023/04/10 09:12:09;;;;;;;21.77;10.63;;;;;;;12.51;69.65;101525.56;4920782;29;20055;-79
2023/04/10 09:14:36;;;;;;;22.33;11.73;;;;;;;12.35;69.90;101520.06;4927078;29;20036;-79
2023/04/10 09:17:21;;;;;;;16.80;8.52;;;;;;;13.96;79.04;101530.81;4909486;29;20032;-84
2023/04/10 09:19:50;;;;;;;16.20;10.48;;;;;;;12.91;68.69;101532.63;4924926;29;20371;-79
2023/04/10 09:22:15;;;;;;;18.50;10.10;;;;;;;12.54;69.33;101530.44;4924661;29;20405;-79
2023/04/10 09:24:43;;;;;;;17.48;11.90;;;;;;;12.65;67.73;101527.78;4912065;29;20032;-75
2023/04/10 09:27:27;;;;;;;18.55;11.50;;;;;;;12.65;69.13;101530.59;4920494;29;20075;-80
2023/04/10 09:29:52;;;;;;;17.13;10.23;;;;;;;12.73;68.26;101527.56;4907937;29;20063;-80
2023/04/10 09:32:39;;;;;;;16.30;10.82;;;;;;;13.06;71.64;101519.59;4906784;29;20059;-88
2023/04/10 09:35:06;;;;;;;23.98;11.95;;;;;;;13.40;69.16;101514.88;4920680;29;20184;-82
2023/04/10 09:37:35;;;;;;;15.80;10.55;;;;;;;13.50;64.75;101505.75;4920190;29;20055;-80
2023/04/10 09:40:01;;;;;;;17.17;10.07;;;;;;;13.72;63.27;101489.94;4922616;29;20529;-81
2023/04/10 09:42:45;;;;;;;17.25;10.82;;;;;;;13.17;62.70;101489.63;4900900;29;20035;-83
2023/04/10 09:45:10;;;;;;;18.08;10.80;;;;;;;13.15;62.55;101487.19;4906630;29;20043;-82
2023/04/10 09:47:36;;;;;;;18.23;10.27;;;;;;;13.49;62.92;101463.97;4918255;29;20068;-81
2023/04/10 09:50:02;;;;;;;15.70;9.20;;;;;;;13.29;65.15;101472.56;4900580;29;20486;-82
2023/04/10 09:52:29;;;;;;;16.23;11.02;;;;;;;13.34;61.88;101465.78;4901881;29;20055;-82
2023/04/10 09:54:57;;;;;;;18.48;10.73;;;;;;;13.18;63.42;101472.41;4919958;29;20111;-81
2023/04/10 09:57:24;;;;;;;17.15;9.95;;;;;;;13.47;62.02;101463.53;4905360;29;20031;-83
2023/04/10 09:59:56;;;;;;;31.80;10.05;;;;;;;13.11;64.26;101454.63;4929004;29;20063;-84
2023/04/10 10:02:35;;;;;;;25.70;10.63;;;;;;;13.07;66.37;101445.31;4930530;29;20049;-84
2023/04/10 10:05:03;;;;;;;14.48;10.35;;;;;;;13.19;65.67;101445.09;4924602;29;20094;-84
2023/04/10 10:07:29;;;;;;;15.88;9.73;;;;;;;13.15;64.19;101441.44;4926782;29;20577;-83
2023/04/10 10:09:56;;;;;;;16.42;10.52;;;;;;;12.99;67.62;101455.69;4923146;29;20061;-83
2023/04/10 10:12:28;;;;;;;15.88;9.40;;;;;;;13.15;64.78;101442.22;4918452;29;20557;-83
2023/04/10 10:15:39;;;;;;;15.25;10.55;;;;;;;13.19;64.25;101440.28;4919677;29;20064;-82
2023/04/10 10:18:29;;;;;;;13.98;9.30;;;;;;;13.20;65.42;101427.84;4890725;29;20397;-80
2023/04/10 10:20:55;;;;;;;16.05;9.88;;;;;;;13.28;67.01;101430.75;4925356;29;20071;-81
2023/04/10 10:23:22;;;;;;;16.98;10.65;;;;;;;13.35;63.92;101422.44;4908327;29;20040;-81
2023/04/10 10:25:49;;;;;;;18.25;10.25;;;;;;;13.19;66.24;101405.75;4898144;29;20083;-80
2023/04/10 10:28:16;;;;;;;14.38;9.38;;;;;;;13.05;65.58;101406.38;4925339;29;20179;-80
2023/04/10 10:30:43;;;;;;;18.55;9.30;;;;;;;13.05;65.10;101397.13;4924176;29;20032;-88
2023/04/10 10:33:10;;;;;;;17.35;9.45;;;;;;;13.13;67.11;101394.00;4917848;29;20393;-89
2023/04/10 10:35:36;;;;;;;15.50;9.05;;;;;;;13.23;63.45;101396.16;4908171;29;20035;-87
2023/04/10 10:38:03;;;;;;;15.43;9.32;;;;;;;13.36;63.30;101384.69;4920742;29;20082;-86
2023/04/10 10:40:37;;;;;;;14.57;9.18;;;;;;;13.42;63.43;101380.31;4926365;29;20031;-87
2023/04/10 10:43:32;;;;;;;13.18;9.00;;;;;;;13.39;64.03;101383.91;4915945;29;20126;-86
2023/04/10 10:46:08;;;;;;;14.07;7.63;;;;;;;13.35;65.66;101364.19;4911487;29;20429;-86
2023/04/10 10:48:33;;;;;;;15.25;9.10;;;;;;;13.58;63.11;101364.03;4916234;29;20036;-86
2023/04/10 10:51:00;;;;;;;14.18;8.93;;;;;;;13.74;63.18;101363.75;4909852;29;20066;-87
2023/04/10 10:53:38;;;;;;;15.23;8.57;;;;;;;13.76;64.29;101357.75;4910018;29;20027;-87
2023/04/10 10:56:19;;;;;;;15.77;9.65;;;;;;;13.74;63.10;101354.50;4925622;29;20123;-86
2023/04/10 10:58:49;;;;;;;14.82;9.00;;;;;;;13.78;64.37;101346.91;4926309;29;20035;-86
2023/04/10 11:01:16;;;;;;;14.27;9.35;;;;;;;13.81;64.04;101343.34;4912540;29;20028;-87
2023/04/10 11:03:43;;;;;;;14.23;8.85;;;;;;;13.83;64.33;101329.69;4926084;29;20032;-86
2023/04/10 11:06:11;;;;;;;16.70;9.30;;;;;;;13.69;62.78;101323.94;4924996;29;20139;-86
2023/04/10 11:08:41;;;;;;;16.02;8.80;;;;;;;13.79;62.99;101328.84;4918186;29;20039;-86
2023/04/10 11:11:09;;;;;;;13.73;8.75;;;;;;;13.81;65.94;101318.03;4910859;29;20035;-87
2023/04/10 11:13:39;;;;;;;16.88;10.10;;;;;;;13.83;66.59;101312.81;4909973;29;20066;-85
2023/04/10 11:16:08;;;;;;;14.20;9.02;;;;;;;14.08;64.34;101320.63;4910203;29;20039;-84